Time;durP1;ratioP1;P1;durP2;ratioP2;P2;SDS_P1;SDS_P2;PMS_P1;PMS_P2;Temp;Humidity;BMP_temperature;BMP_pressure;BME280_temperature;BME280_humidity;BME280_pressure;Samples;Min_cycle;Max_cycle;Signal;HPM_P1;HPM_P2
2022/05/05 00:00:18;;;;;;;12.77;5.70;;;;;;;10.25;52.42;101151.15;1667731;85;20136;-78
2022/05/05 00:02:44;;;;;;;9.70;5.40;;;;;;;10.26;52.00;101150.28;1684999;84;20923;-78
2022/05/05 00:05:10;;;;;;;10.63;5.27;;;;;;;10.31;52.06;101152.84;1668928;86;20880;-80
2022/05/05 00:07:36;;;;;;;14.87;5.50;;;;;;;10.34;52.11;101152.81;1668708;84;21628;-78
2022/05/05 00:14:23;;;;;;;8.37;5.97;;;;;;;10.38;52.14;101150.64;1657617;84;20888;-78
2022/05/05 00:15:15;;;;;;;7.55;5.03;;;;;;;10.40;52.22;101139.39;1669279;86;20927;-78
2022/05/05 00:17:42;;;;;;;6.85;5.67;;;;;;;10.43;52.22;101151.44;1677886;85;20964;-78
2022/05/05 00:20:09;;;;;;;7.77;5.50;;;;;;;10.45;52.29;101149.70;1668921;84;20900;-78
2022/05/05 00:22:35;;;;;;;8.00;5.70;;;;;;;10.49;52.35;101151.39;1658047;84;20923;-78
2022/05/05 00:25:01;;;;;;;8.53;5.07;;;;;;;10.51;52.39;101156.12;1688100;84;20890;-78
2022/05/05 00:27:28;;;;;;;11.00;5.83;;;;;;;10.54;52.43;101163.86;1661453;84;20922;-78
2022/05/05 00:29:54;;;;;;;7.40;5.00;;;;;;;10.54;52.44;101158.25;1673407;85;20937;-78
2022/05/05 00:32:20;;;;;;;7.80;5.20;;;;;;;10.56;52.49;101156.52;1675678;84;21595;-77
2022/05/05 00:34:46;;;;;;;6.77;5.70;;;;;;;10.60;52.54;101156.05;1686102;84;20960;-77
2022/05/05 00:37:12;;;;;;;8.23;5.00;;;;;;;10.63;52.59;101159.91;1611271;87;20895;-78
2022/05/05 00:39:38;;;;;;;7.23;4.87;;;;;;;10.68;52.65;101150.83;1674990;84;20860;-79
2022/05/05 00:42:09;;;;;;;7.60;4.70;;;;;;;10.71;52.67;101147.78;1679832;84;21579;-79
2022/05/05 00:44:37;;;;;;;8.70;5.47;;;;;;;10.73;52.68;101146.04;1705968;82;20999;-79
2022/05/05 00:47:04;;;;;;;18.07;5.92;;;;;;;10.74;52.70;101139.14;1703022;84;21067;-79
2022/05/05 00:49:30;;;;;;;10.10;5.45;;;;;;;10.75;52.72;101144.73;1703442;82;21118;-77
2022/05/05 00:51:58;;;;;;;7.53;4.75;;;;;;;10.76;52.77;101138.69;1665854;84;21004;-78
2022/05/05 00:54:27;;;;;;;8.00;4.78;;;;;;;10.77;52.81;101135.23;1667464;84;20954;-78
2022/05/05 00:56:53;;;;;;;9.77;5.37;;;;;;;10.77;52.84;101133.94;1668607;85;21024;-76
2022/05/05 00:59:19;;;;;;;11.50;4.45;;;;;;;10.76;52.87;101132.22;1657292;84;21069;-78
2022/05/05 01:01:46;;;;;;;7.60;5.12;;;;;;;10.77;52.91;101131.35;1666603;86;20945;-77
2022/05/05 01:04:13;;;;;;;9.73;5.20;;;;;;;10.74;52.95;101128.36;1666729;84;21473;-77
2022/05/05 01:06:39;;;;;;;7.25;4.87;;;;;;;10.73;52.98;101132.25;1655385;85;21338;-78
2022/05/05 01:09:05;;;;;;;10.43;5.33;;;;;;;10.72;53.02;101128.80;1640113;87;21578;-78
2022/05/05 01:11:31;;;;;;;7.60;5.20;;;;;;;10.75;53.07;101127.92;1664828;84;21064;-79
2022/05/05 01:13:57;;;;;;;6.75;5.15;;;;;;;10.77;53.14;101132.65;1669144;86;20897;-79
2022/05/05 01:16:23;;;;;;;5.47;4.47;;;;;;;10.78;53.15;101130.48;1669127;86;21632;-79
2022/05/05 01:18:51;;;;;;;8.27;5.20;;;;;;;10.80;53.20;101128.74;1705548;82;20975;-78
2022/05/05 01:21:19;;;;;;;8.73;4.60;;;;;;;10.83;53.21;101130.02;1707875;82;20932;-78
2022/05/05 01:23:45;;;;;;;6.85;5.20;;;;;;;10.86;53.27;101127.39;1711058;83;20943;-79
2022/05/05 01:28:57;;;;;;;7.92;5.20;;;;;;;10.92;53.33;101122.13;1707999;82;21440;-80
2022/05/05 01:31:23;;;;;;;14.03;5.10;;;;;;;10.95;53.33;101125.98;1709488;83;20936;-79
2022/05/05 01:33:49;;;;;;;7.67;5.30;;;;;;;10.99;53.38;101131.99;1708187;83;20896;-78
2022/05/05 01:36:15;;;;;;;6.62;5.17;;;;;;;11.00;53.41;101133.27;1709980;83;21436;-79
2022/05/05 01:38:44;;;;;;;7.60;5.20;;;;;;;11.03;53.43;101133.68;1709922;82;20853;-79
2022/05/05 01:41:14;;;;;;;6.65;4.65;;;;;;;11.06;53.45;101133.66;1725168;82;20911;-79
2022/05/05 01:43:44;;;;;;;5.72;4.75;;;;;;;11.09;53.48;101130.59;1710883;83;20884;-78
2022/05/05 01:46:10;;;;;;;8.28;4.83;;;;;;;11.12;53.48;101129.71;1710854;83;20917;-79
2022/05/05 01:48:36;;;;;;;7.87;5.12;;;;;;;11.13;53.49;101128.41;1710162;82;20935;-78
2022/05/05 01:51:04;;;;;;;9.98;5.10;;;;;;;11.15;53.50;101129.25;1710300;82;20916;-79
2022/05/05 01:53:36;;;;;;;10.72;5.15;;;;;;;11.15;53.50;101131.83;1709579;83;20924;-79
2022/05/05 01:56:12;;;;;;;8.83;5.17;;;;;;;11.15;53.53;101131.83;1709551;83;20955;-78
2022/05/05 01:58:41;;;;;;;8.75;5.17;;;;;;;11.16;53.55;101129.66;1701465;82;20979;-79
2022/05/05 02:01:10;;;;;;;10.05;4.90;;;;;;;11.15;53.53;101133.56;1708022;82;21466;-78
2022/05/05 02:03:37;;;;;;;7.78;4.60;;;;;;;11.15;53.57;101134.42;1710757;83;20919;-78
2022/05/05 02:06:03;;;;;;;9.78;5.12;;;;;;;11.16;53.63;101132.69;1710196;83;20910;-79
2022/05/05 02:08:29;;;;;;;6.95;4.47;;;;;;;11.16;53.62;101133.98;1710312;82;20990;-78
2022/05/05 02:10:55;;;;;;;7.95;5.42;;;;;;;11.15;53.66;101131.83;1708919;82;21051;-78
2022/05/05 02:13:23;;;;;;;6.78;4.90;;;;;;;11.14;53.66;101126.67;1707933;83;21051;-78
2022/05/05 02:15:49;;;;;;;7.37;4.60;;;;;;;11.14;53.69;101128.82;1723323;82;21046;-78
2022/05/05 02:18:15;;;;;;;9.10;4.53;;;;;;;11.12;53.72;101122.80;1731691;82;21050;-78
2022/05/05 02:20:42;;;;;;;6.12;4.53;;;;;;;11.11;53.76;101119.80;1737232;82;21055;-79
2022/05/05 02:23:09;;;;;;;8.77;5.00;;;;;;;11.10;53.75;101116.78;1709050;82;21092;-78
2022/05/05 02:25:35;;;;;;;;;;;;;;;11.09;53.78;101108.59;1715238;82;21554;-78
2022/05/05 02:28:03;;;;;;;7.28;4.80;;;;;;;11.10;54.00;101105.14;1703314;84;20285;-79
2022/05/05 02:30:29;;;;;;;8.65;5.08;;;;;;;11.09;53.82;101107.30;1665766;85;21028;-79
2022/05/05 02:32:55;;;;;;;9.47;5.20;;;;;;;11.07;53.83;101112.08;1666853;84;20976;-78
2022/05/05 02:35:23;;;;;;;8.35;4.80;;;;;;;11.06;53.86;101112.51;1666135;84;21173;-78
2022/05/05 02:40:34;;;;;;;8.28;4.70;;;;;;;11.06;53.84;101114.24;1633373;85;21124;-78
2022/05/05 02:43:03;;;;;;;6.65;4.45;;;;;;;11.04;53.88;101111.67;1678633;84;21052;-78
2022/05/05 02:45:29;;;;;;;7.72;4.92;;;;;;;11.06;53.95;101116.83;1678580;84;20991;-78
2022/05/05 02:47:55;;;;;;;7.37;5.00;;;;;;;11.05;53.95;101115.97;1639622;87;21334;-78
2022/05/05 02:50:22;;;;;;;5.30;4.08;;;;;;;11.05;54.01;101113.38;1641884;86;26527;-81
2022/05/05 02:52:49;;;;;;;12.37;4.45;;;;;;;11.05;54.04;101117.27;1661220;84;20997;-79
2022/05/05 02:55:15;;;;;;;8.90;5.30;;;;;;;11.06;54.07;101126.75;1668211;84;21679;-78
2022/05/05 02:57:41;;;;;;;8.43;5.00;;;;;;;11.04;54.04;101127.63;1657179;84;21242;-78
2022/05/05 03:00:11;;;;;;;8.07;4.50;;;;;;;11.04;54.13;101127.63;1661937;84;21059;-80
2022/05/05 03:02:37;;;;;;;7.47;4.90;;;;;;;11.05;54.16;101123.73;1665835;84;20890;-79
2022/05/05 03:05:04;;;;;;;6.72;4.87;;;;;;;11.07;54.16;101121.99;1668967;86;20972;-79
2022/05/05 03:07:30;;;;;;;6.92;4.55;;;;;;;11.10;54.19;101119.81;1668274;84;20967;-79
2022/05/05 03:09:56;;;;;;;5.57;4.33;;;;;;;11.13;54.20;101118.05;1637921;86;20982;-78
2022/05/05 03:12:22;;;;;;;6.87;4.97;;;;;;;11.16;54.20;101121.05;1668713;84;21370;-79
2022/05/05 03:14:49;;;;;;;10.10;4.87;;;;;;;11.18;54.26;101121.88;1668194;86;20991;-79
2022/05/05 03:17:15;;;;;;;8.33;4.80;;;;;;;11.18;54.27;101118.00;1678202;85;20962;-79
2022/05/05 03:19:42;;;;;;;11.60;4.33;;;;;;;11.20;54.30;101114.52;1704748;82;20884;-79
2022/05/05 03:22:08;;;;;;;6.40;4.60;;;;;;;11.22;54.34;101114.51;1674807;84;20914;-78
2022/05/05 03:24:36;;;;;;;8.13;4.92;;;;;;;11.25;54.37;101118.36;1679076;84;20898;-79
2022/05/05 03:27:03;;;;;;;5.65;3.67;;;;;;;11.26;54.43;101121.37;1675089;83;20889;-78
2022/05/05 03:29:29;;;;;;;7.25;4.22;;;;;;;11.26;54.50;101123.52;1692224;83;20908;-79
2022/05/05 03:31:55;;;;;;;8.63;4.23;;;;;;;11.27;54.54;101114.02;1680891;85;20952;-78
2022/05/05 03:34:21;;;;;;;9.20;4.87;;;;;;;11.27;54.53;101123.09;1679089;83;20953;-77
2022/05/05 03:36:47;;;;;;;8.43;4.90;;;;;;;11.26;54.57;101123.52;1703125;83;20981;-77
2022/05/05 03:39:19;;;;;;;7.28;4.78;;;;;;;11.27;54.62;101119.20;1699427;83;21227;-78
2022/05/05 03:41:46;;;;;;;11.22;5.78;;;;;;;11.30;54.59;101118.31;1677221;85;21032;-77
2022/05/05 03:44:12;;;;;;;9.38;5.78;;;;;;;11.31;54.67;101126.06;1675974;83;21067;-79
2022/05/05 03:46:38;;;;;;;11.27;8.87;;;;;;;11.35;54.73;101128.18;1673017;83;21371;-78
2022/05/05 03:49:04;;;;;;;10.83;6.20;;;;;;;11.35;54.69;101134.66;1682398;83;21091;-78
2022/05/05 03:51:35;;;;;;;9.45;6.15;;;;;;;11.36;54.78;101135.08;1677848;84;21052;-78
2022/05/05 03:54:02;;;;;;;11.43;6.30;;;;;;;11.38;54.81;101137.21;1678745;84;20881;-80
2022/05/05 03:56:28;;;;;;;7.00;5.35;;;;;;;11.41;54.83;101138.47;1677722;83;20996;-78
2022/05/05 03:58:53;;;;;;;12.23;5.20;;;;;;;11.44;54.94;101135.37;1678454;83;21099;-79
2022/05/05 04:01:19;;;;;;;7.50;4.30;;;;;;;11.43;54.84;101128.52;1671688;83;21665;-78
2022/05/05 04:03:45;;;;;;;5.53;4.53;;;;;;;11.43;54.84;101128.52;1681081;83;20917;-78
2022/05/05 04:06:13;;;;;;;5.23;4.60;;;;;;;11.44;54.99;101137.11;1678084;84;21730;-79
2022/05/05 04:08:39;;;;;;;12.23;4.65;;;;;;;11.44;55.04;101135.37;1681658;83;21003;-78
2022/05/05 04:11:07;;;;;;;7.15;5.20;;;;;;;11.44;55.06;101143.15;1681233;84;21546;-79
2022/05/05 04:13:33;;;;;;;11.35;6.83;;;;;;;11.41;55.12;101148.39;1680251;84;20984;-80
2022/05/05 04:16:01;;;;;;;21.52;8.15;;;;;;;11.36;55.26;101148.87;1680125;84;21519;-79
2022/05/05 04:18:27;;;;;;;15.67;7.10;;;;;;;11.36;55.30;101157.94;1678137;83;22343;-78
2022/05/05 04:20:53;;;;;;;11.67;5.57;;;;;;;11.39;55.44;101153.17;1678185;84;21065;-78
2022/05/05 04:23:23;;;;;;;13.08;5.95;;;;;;;11.44;55.50;101152.65;1636496;85;21624;-77
2022/05/05 04:25:49;;;;;;;12.47;5.97;;;;;;;11.47;55.52;101147.44;1645543;87;20933;-77
2022/05/05 04:28:16;;;;;;;10.80;5.70;;;;;;;11.50;55.57;101152.14;1649806;85;21188;-77
2022/05/05 04:30:43;;;;;;;8.95;5.40;;;;;;;11.52;55.61;101150.39;1642579;85;21417;-76
2022/05/05 04:33:10;;;;;;;9.73;6.63;;;;;;;11.54;55.65;101154.27;1639438;86;21091;-77
2022/05/05 04:35:36;;;;;;;8.78;5.75;;;;;;;11.50;55.72;101149.55;1644707;85;21421;-77
2022/05/05 04:38:04;;;;;;;9.25;5.40;;;;;;;11.58;55.80;101155.95;1643765;85;21100;-76
2022/05/05 04:40:31;;;;;;;10.45;5.72;;;;;;;11.62;55.86;101162.80;1681878;83;28105;-76
2022/05/05 04:42:57;;;;;;;7.70;5.03;;;;;;;11.67;55.93;101173.97;1676764;83;20982;-76
2022/05/05 04:45:24;;;;;;;8.33;5.28;;;;;;;11.69;55.92;101169.63;1641685;83;21521;-77
2022/05/05 04:47:50;;;;;;;8.50;5.50;;;;;;;11.74;56.00;101176.06;1676391;84;20921;-77
2022/05/05 04:50:17;;;;;;;11.75;5.95;;;;;;;11.79;56.05;101176.89;1691098;83;20966;-84
2022/05/05 04:52:43;;;;;;;11.55;5.03;;;;;;;11.86;56.13;101181.12;1665202;85;20926;-82
2022/05/05 04:55:09;;;;;;;8.10;5.30;;;;;;;11.97;56.19;101178.38;1671155;83;20897;-79
2022/05/05 04:57:36;;;;;;;10.43;6.53;;;;;;;12.08;56.23;101173.91;1678094;83;21382;-80
2022/05/05 05:00:06;;;;;;;8.78;5.58;;;;;;;12.23;56.31;101172.41;1676208;85;20903;-79
2022/05/05 05:02:32;;;;;;;12.20;6.08;;;;;;;12.43;56.35;101174.28;1679638;84;21502;-80
2022/05/05 05:04:58;;;;;;;10.17;5.93;;;;;;;12.67;56.41;101176.92;1682357;83;21518;-79
2022/05/05 05:07:24;;;;;;;10.93;5.67;;;;;;;12.84;56.29;101176.22;1634236;85;21554;-80
2022/05/05 05:09:50;;;;;;;12.57;7.03;;;;;;;12.92;56.27;101179.98;1638648;85;20966;-81
2022/05/05 05:12:17;;;;;;;12.28;6.00;;;;;;;12.95;56.33;101172.15;1619894;88;21584;-80
2022/05/05 05:14:45;;;;;;;11.38;5.90;;;;;;;13.01;56.34;101173.31;1618992;86;20942;-80
2022/05/05 05:17:11;;;;;;;10.05;5.53;;;;;;;13.05;56.27;101174.11;1583223;88;21460;-80
2022/05/05 05:19:37;;;;;;;8.23;5.20;;;;;;;13.06;56.25;101172.79;1592371;88;21491;-80
2022/05/05 05:22:05;;;;;;;7.90;5.15;;;;;;;13.08;56.26;101173.62;1626619;86;21857;-80
2022/05/05 05:24:34;;;;;;;8.83;5.25;;;;;;;13.11;56.24;101170.97;1708319;82;21030;-80
2022/05/05 05:27:00;;;;;;;7.70;4.87;;;;;;;13.10;56.11;101172.30;1705982;82;21747;-80
2022/05/05 05:29:27;;;;;;;8.93;5.33;;;;;;;13.04;56.12;101166.77;1705606;82;21657;-80
2022/05/05 05:31:53;;;;;;;19.57;5.67;;;;;;;13.01;56.07;101168.12;1704059;82;21485;-80
2022/05/05 05:34:20;;;;;;;10.28;4.78;;;;;;;12.99;56.12;101163.87;1713822;82;21564;-80
2022/05/05 05:36:49;;;;;;;9.15;5.55;;;;;;;12.98;56.11;101168.20;1664815;84;29535;-81
2022/05/05 05:39:13;;;;;;;8.55;5.97;;;;;;;13.00;56.11;101167.70;1666749;84;21591;-81
2022/05/05 05:41:39;;;;;;;10.27;5.50;;;;;;;13.04;56.07;101164.61;1667386;84;21655;-80
2022/05/05 05:44:05;;;;;;;8.23;5.07;;;;;;;13.09;56.06;101160.20;1666367;83;21659;-80
2022/05/05 05:46:31;;;;;;;6.63;5.63;;;;;;;13.10;56.00;101151.08;1666598;84;28236;-80
2022/05/05 05:48:57;;;;;;;14.37;5.27;;;;;;;13.14;56.06;101158.38;1666595;84;21430;-80
2022/05/05 05:51:24;;;;;;;8.28;5.55;;;;;;;13.26;56.13;101167.28;1666478;84;21576;-81
2022/05/05 05:53:50;;;;;;;6.17;5.50;;;;;;;13.46;56.24;101166.47;1667205;84;26879;-80
2022/05/05 05:56:16;;;;;;;10.23;5.60;;;;;;;13.78;56.28;101167.55;1664616;84;21052;-81
2022/05/05 05:58:42;;;;;;;7.57;5.27;;;;;;;14.17;56.35;101165.84;1661630;84;21592;-82
2022/05/05 06:01:09;;;;;;;8.37;5.27;;;;;;;14.73;56.48;101165.84;1664735;84;20929;-81
2022/05/05 06:03:53;;;;;;;9.00;5.42;;;;;;;15.37;56.37;101163.31;1668438;84;21159;-81
2022/05/05 06:06:21;;;;;;;8.03;5.20;;;;;;;15.78;56.18;101160.42;1665156;84;21070;-80
2022/05/05 06:08:47;;;;;;;13.72;5.33;;;;;;;16.31;56.25;101156.64;1671663;84;21596;-80
2022/05/05 06:11:14;;;;;;;12.13;5.42;;;;;;;16.92;56.11;101159.91;1667675;84;27079;-80
2022/05/05 06:13:42;;;;;;;6.75;5.47;;;;;;;17.28;55.78;101161.69;1671658;84;21489;-80
2022/05/05 06:16:13;;;;;;;8.00;5.27;;;;;;;17.39;55.61;101162.62;1670913;84;21075;-80
2022/05/05 06:18:37;;;;;;;8.88;5.28;;;;;;;17.40;55.51;101161.71;1680241;84;21052;-81
2022/05/05 06:21:04;;;;;;;12.15;5.90;;;;;;;17.48;55.54;101167.52;1671394;84;21618;-81
2022/05/05 06:23:31;;;;;;;10.40;6.03;;;;;;;17.79;55.58;101167.27;1676922;84;21452;-80
2022/05/05 06:25:57;;;;;;;8.63;5.17;;;;;;;18.10;55.30;101163.05;1681248;83;21067;-80
2022/05/05 06:28:23;;;;;;;11.15;6.83;;;;;;;18.38;55.26;101163.66;1681954;83;21054;-80
2022/05/05 06:30:49;;;;;;;10.75;5.95;;;;;;;18.62;55.08;101156.62;1658260;85;21165;-81
2022/05/05 06:33:18;;;;;;;9.95;5.28;;;;;;;18.91;54.95;101159.78;1719969;82;21050;-81
2022/05/05 06:35:47;;;;;;;9.30;5.72;;;;;;;19.21;54.82;101160.26;1709650;82;21496;-81
2022/05/05 06:38:13;;;;;;;8.13;5.17;;;;;;;19.48;54.62;101159.03;1707383;82;21046;-81
2022/05/05 06:40:41;;;;;;;10.00;5.83;;;;;;;19.77;54.47;101157.27;1709486;82;21061;-82
2022/05/05 06:43:07;;;;;;;7.83;4.87;;;;;;;19.99;54.25;101160.23;1687495;83;21099;-82
2022/05/05 06:45:33;;;;;;;10.85;5.40;;;;;;;20.18;54.13;101160.22;1673859;83;21068;-81
2022/05/05 06:48:01;;;;;;;12.53;5.85;;;;;;;20.45;54.02;101163.70;1674844;83;21075;-81
2022/05/05 06:50:28;;;;;;;10.40;6.42;;;;;;;20.66;53.82;101161.81;1678144;83;21055;-80
2022/05/05 06:52:59;;;;;;;9.05;5.70;;;;;;;20.87;53.65;101163.81;1710387;82;21085;-81
2022/05/05 06:55:23;;;;;;;13.85;5.45;;;;;;;21.09;53.52;101159.18;1708763;82;21066;-81
2022/05/05 06:57:49;;;;;;;9.90;5.57;;;;;;;21.37;53.29;101162.55;1713525;82;20950;-82
2022/05/05 07:00:16;;;;;;;11.67;4.97;;;;;;;21.51;52.96;101164.47;1713927;82;20878;-81
2022/05/05 07:02:43;;;;;;;7.12;4.95;;;;;;;21.73;52.87;101170.30;1701667;82;21098;-82
2022/05/05 07:05:24;;;;;;;8.60;4.97;;;;;;;21.92;52.65;101158.28;1706047;82;21069;-81
2022/05/05 07:07:51;;;;;;;7.22;5.12;;;;;;;22.10;52.47;101165.67;1704717;82;21117;-81
2022/05/05 07:13:05;;;;;;;6.90;5.05;;;;;;;22.32;52.08;101162.70;1709815;82;21082;-82
2022/05/05 07:15:32;;;;;;;9.70;5.03;;;;;;;22.54;51.81;101166.27;1709603;82;28222;-81
2022/05/05 07:17:58;;;;;;;6.80;5.20;;;;;;;22.78;51.73;101164.86;1716492;82;21344;-81
2022/05/05 07:20:24;;;;;;;10.50;5.57;;;;;;;23.03;51.54;101160.31;1708894;82;21054;-81
2022/05/05 07:22:51;;;;;;;12.82;5.58;;;;;;;23.26;51.27;101165.08;1706072;82;21047;-81
2022/05/05 07:25:23;;;;;;;12.37;5.00;;;;;;;23.43;51.06;101162.23;1676604;84;21062;-81
2022/05/05 07:27:50;;;;;;;6.15;4.87;;;;;;;23.56;50.73;101161.05;1703386;82;20998;-81
2022/05/05 07:30:16;;;;;;;7.97;4.75;;;;;;;23.68;50.71;101169.54;1702827;82;21417;-81
2022/05/05 07:32:42;;;;;;;7.72;5.22;;;;;;;23.93;50.85;101169.30;1704720;82;21355;-81
2022/05/05 07:35:10;;;;;;;6.35;4.67;;;;;;;24.42;51.04;101173.67;1704589;82;20932;-81
2022/05/05 07:37:38;;;;;;;6.15;4.92;;;;;;;25.06;50.62;101176.84;1703555;82;20904;-81
2022/05/05 07:40:06;;;;;;;8.35;4.90;;;;;;;25.37;49.69;101174.28;1704583;82;20869;-81
2022/05/05 07:42:32;;;;;;;6.42;4.30;;;;;;;25.43;49.14;101175.66;1674221;84;20951;-81
2022/05/05 07:44:58;;;;;;;8.18;4.15;;;;;;;25.31;48.37;101174.70;1705967;82;21300;-81
2022/05/05 07:47:25;;;;;;;13.55;4.72;;;;;;;24.75;48.16;101172.75;1706612;82;21047;-81
2022/05/05 07:49:52;;;;;;;10.00;4.60;;;;;;;24.41;48.13;101175.47;1702583;82;21062;-81
2022/05/05 07:52:19;;;;;;;8.38;4.45;;;;;;;24.07;47.82;101145.50;1703132;82;21112;-82
2022/05/05 07:54:45;;;;;;;5.87;4.30;;;;;;;24.03;47.70;101167.30;1708114;82;21651;-81
2022/05/05 07:57:13;;;;;;;5.17;4.15;;;;;;;23.93;47.53;101170.16;1704225;82;21058;-81
2022/05/05 07:59:40;;;;;;;11.28;4.50;;;;;;;23.95;47.33;101175.34;1701710;82;21590;-81
2022/05/05 08:02:09;;;;;;;8.13;4.47;;;;;;;24.06;47.14;101179.48;1707298;82;20892;-81
2022/05/05 08:04:35;;;;;;;4.50;4.00;;;;;;;24.25;46.58;101191.05;1705956;82;20919;-82
2022/05/05 08:07:02;;;;;;;8.08;4.25;;;;;;;24.25;46.58;101191.05;1709568;82;20940;-80
2022/05/05 08:09:28;;;;;;;5.37;3.65;;;;;;;24.13;46.25;101194.00;1714363;82;20948;-80
2022/05/05 08:11:54;;;;;;;7.57;4.00;;;;;;;24.01;46.10;101204.02;1704846;82;21476;-80
2022/05/05 08:14:23;;;;;;;8.98;4.55;;;;;;;23.91;45.88;101208.20;1700967;82;21043;-80
2022/05/05 08:16:49;;;;;;;7.80;4.20;;;;;;;23.90;45.74;101210.47;1670640;84;21133;-80
2022/05/05 08:19:15;;;;;;;5.83;3.47;;;;;;;23.91;45.50;101204.25;1647221;85;21596;-80
2022/05/05 08:21:41;;;;;;;16.13;4.43;;;;;;;23.84;45.35;101201.61;1627885;87;21082;-80
2022/05/05 08:29:37;;;;;;;6.22;4.15;;;;;;;23.87;44.79;101206.70;1667580;85;21127;-80
2022/05/05 08:32:04;;;;;;;8.40;5.13;;;;;;;23.88;44.63;101213.68;1665712;83;21309;-80
2022/05/05 08:34:30;;;;;;;7.75;4.60;;;;;;;23.75;44.37;101208.30;1668556;83;21571;-81
2022/05/05 08:36:56;;;;;;;8.20;4.65;;;;;;;23.68;44.28;101215.75;1659481;85;21043;-81
2022/05/05 08:39:22;;;;;;;11.23;5.07;;;;;;;23.61;44.11;101215.75;1656847;85;20873;-80
2022/05/05 08:41:49;;;;;;;13.80;7.10;;;;;;;23.64;44.13;101222.16;1687679;83;20930;-81
2022/05/05 08:44:15;;;;;;;8.18;5.72;;;;;;;23.76;44.02;101216.60;1657822;83;21043;-80
2022/05/05 08:46:41;;;;;;;12.73;6.97;;;;;;;23.93;43.86;101213.74;1664739;85;21390;-80
2022/05/05 08:49:08;;;;;;;10.60;6.60;;;;;;;24.09;43.69;101214.95;1673688;83;21489;-80
2022/05/05 08:51:44;;;;;;;7.05;5.55;;;;;;;23.99;43.06;101200.63;1665561;83;21021;-80
2022/05/05 08:54:17;;;;;;;5.83;4.40;;;;;;;23.99;43.06;101200.63;1661695;83;20898;-80
2022/05/05 08:56:45;;;;;;;11.57;6.10;;;;;;;24.03;43.09;101212.70;1665150;83;20980;-79
2022/05/05 08:59:13;;;;;;;6.37;4.72;;;;;;;23.80;42.63;101192.17;1688423;82;20984;-79
2022/05/05 09:01:40;;;;;;;9.68;4.12;;;;;;;23.80;42.63;101192.17;1659088;85;20897;-82
2022/05/05 09:04:08;;;;;;;7.37;4.33;;;;;;;23.78;42.59;101208.11;1662830;83;20899;-81
2022/05/05 09:06:47;;;;;;;5.70;4.37;;;;;;;23.78;42.54;101209.44;1670294;83;21348;-81
2022/05/05 09:09:36;;;;;;;13.83;4.60;;;;;;;23.71;42.34;101204.15;1661205;85;20949;-81
2022/05/05 09:12:17;;;;;;;8.25;4.42;;;;;;;23.65;42.16;101203.20;1666671;85;20954;-79
2022/05/05 09:14:53;;;;;;;6.03;4.17;;;;;;;23.59;41.90;101207.07;1667894;83;20949;-80
2022/05/05 09:17:24;;;;;;;6.50;3.92;;;;;;;23.44;41.75;101201.36;1657008;85;20909;-80
2022/05/05 09:19:55;;;;;;;9.53;3.95;;;;;;;23.35;41.56;101204.11;1664205;85;20966;-80
2022/05/05 09:22:27;;;;;;;12.05;4.58;;;;;;;23.25;41.54;101199.00;1664805;83;20913;-80
2022/05/05 09:24:56;;;;;;;9.78;3.58;;;;;;;23.20;41.37;101197.11;1654822;84;20921;-80
2022/05/05 09:27:26;;;;;;;8.78;3.70;;;;;;;23.12;41.28;101194.07;1661281;84;20909;-81
2022/05/05 09:30:12;;;;;;;5.70;4.40;;;;;;;23.08;41.17;101195.19;1663269;84;20927;-80
2022/05/05 09:32:43;;;;;;;6.03;4.08;;;;;;;22.95;40.93;101195.05;1661089;85;20996;-80
2022/05/05 09:35:18;;;;;;;7.53;3.90;;;;;;;22.69;40.85;101187.80;1673141;84;21380;-79
2022/05/05 09:37:52;;;;;;;10.80;4.53;;;;;;;22.53;40.74;101183.86;1660318;84;20951;-80
2022/05/05 09:40:21;;;;;;;9.88;4.10;;;;;;;22.39;40.71;101189.05;1652437;84;20959;-80
2022/05/05 09:42:50;;;;;;;6.35;3.37;;;;;;;22.35;40.65;101185.77;1650375;85;20973;-79
2022/05/05 09:45:23;;;;;;;9.30;4.12;;;;;;;22.32;40.60;101187.27;1651915;85;21069;-80
2022/05/05 09:47:56;;;;;;;9.85;4.28;;;;;;;22.29;40.52;101183.95;1649041;85;21067;-81
2022/05/05 09:50:25;;;;;;;7.78;4.00;;;;;;;22.27;40.50;101191.09;1651694;84;21469;-80
2022/05/05 09:58:39;;;;;;;5.30;4.17;;;;;;;22.37;40.25;101194.88;1672016;84;20962;-80
2022/05/05 10:01:13;;;;;;;8.05;4.55;;;;;;;22.43;40.32;101192.75;1670883;84;21376;-80
2022/05/05 10:04:02;;;;;;;9.23;4.25;;;;;;;22.45;40.19;101186.92;1656382;84;20907;-80
2022/05/05 10:06:37;;;;;;;7.78;4.30;;;;;;;22.49;40.09;101186.76;1673226;84;21469;-80
2022/05/05 10:09:12;;;;;;;6.87;5.12;;;;;;;22.50;40.08;101187.14;1653681;85;20949;-79
2022/05/05 10:11:40;;;;;;;9.58;4.87;;;;;;;22.56;40.00;101184.16;1661081;84;20899;-80
2022/05/05 10:14:10;;;;;;;7.70;3.98;;;;;;;22.65;40.00;101187.13;1665427;84;20946;-80
2022/05/05 10:16:38;;;;;;;8.00;4.08;;;;;;;22.76;40.00;101183.40;1640142;85;20982;-80
2022/05/05 10:19:06;;;;;;;6.25;5.03;;;;;;;22.91;39.99;101190.05;1666470;84;20959;-79
2022/05/05 10:21:56;;;;;;;16.60;4.67;;;;;;;23.00;39.91;101180.28;1665056;85;20963;-79
2022/05/05 10:24:32;;;;;;;7.08;4.70;;;;;;;23.11;39.89;101185.30;1660421;85;21073;-80
2022/05/05 10:27:01;;;;;;;16.17;5.63;;;;;;;23.17;39.83;101181.92;1656144;85;21122;-80
2022/05/05 10:29:39;;;;;;;12.68;5.83;;;;;;;23.21;39.73;101176.84;1660938;84;21549;-79
2022/05/05 10:32:17;;;;;;;7.15;4.90;;;;;;;23.31;39.75;101185.44;1657830;85;21105;-80
2022/05/05 10:34:47;;;;;;;8.20;5.00;;;;;;;23.31;39.68;101175.36;1665516;85;20999;-79
2022/05/05 10:37:17;;;;;;;11.45;5.45;;;;;;;23.24;39.61;101170.06;1656014;84;20974;-79
2022/05/05 10:40:08;;;;;;;6.17;5.00;;;;;;;23.32;39.60;101175.27;1686488;84;20987;-79
2022/05/05 10:42:44;;;;;;;12.43;5.47;;;;;;;23.34;39.43;101176.02;1655433;85;20990;-79
2022/05/05 10:45:32;;;;;;;9.87;5.93;;;;;;;23.32;39.50;101171.78;1678309;84;21035;-80
2022/05/05 10:48:06;;;;;;;11.80;5.37;;;;;;;23.31;39.45;101165.65;1659206;85;21670;-80
2022/05/05 10:50:54;;;;;;;11.03;5.55;;;;;;;23.34;39.49;101164.14;1616398;88;21062;-80
2022/05/05 10:53:37;;;;;;;9.33;5.87;;;;;;;23.41;39.27;101163.27;1558663;90;20977;-79
2022/05/05 10:56:31;;;;;;;8.13;5.28;;;;;;;23.32;39.23;101158.58;1592255;86;20963;-79
2022/05/05 10:59:02;;;;;;;11.65;5.62;;;;;;;23.31;39.27;101160.38;1604562;88;21109;-79
2022/05/05 11:01:33;;;;;;;10.08;5.87;;;;;;;23.32;39.16;101157.27;1617862;87;21190;-79
2022/05/05 11:04:23;;;;;;;8.70;5.75;;;;;;;23.34;39.24;101156.70;1595314;88;21125;-79
2022/05/05 11:06:49;;;;;;;10.98;5.70;;;;;;;23.39;39.17;101153.31;1598821;88;20924;-80
2022/05/05 11:09:37;;;;;;;9.68;5.53;;;;;;;23.43;39.18;101149.52;1607077;87;20998;-80
2022/05/05 11:12:20;;;;;;;11.80;5.20;;;;;;;23.48;39.07;101144.80;1612500;87;21431;-80
2022/05/05 11:23:42;;;;;;;;;;;;;;;23.35;38.84;101143.41;1591555;87;20960;-80
2022/05/05 11:26:10;;;;;;;9.50;4.60;;;;;;;23.40;38.74;101150.55;1604938;87;20329;-80
2022/05/05 11:28:36;;;;;;;7.05;4.53;;;;;;;23.36;38.69;101145.11;1686492;82;20928;-79
2022/05/05 11:31:03;;;;;;;12.73;4.95;;;;;;;23.37;38.60;101140.67;1711042;82;21353;-79
2022/05/05 11:33:29;;;;;;;10.25;4.90;;;;;;;23.37;38.54;101150.77;1705215;84;20888;-79
2022/05/05 11:36:00;;;;;;;7.47;4.70;;;;;;;23.39;38.50;101146.71;1705663;82;20892;-80
2022/05/05 11:38:28;;;;;;;5.33;4.35;;;;;;;23.40;38.43;101147.91;1704791;82;20920;-81
2022/05/05 11:41:02;;;;;;;9.10;4.50;;;;;;;23.40;38.47;101146.59;1690933;82;20948;-80
2022/05/05 11:46:16;;;;;;;5.28;4.10;;;;;;;23.27;38.32;101146.98;1693505;84;20956;-80
2022/05/05 11:48:43;;;;;;;7.20;4.08;;;;;;;23.28;38.25;101145.19;1704925;82;20869;-80
2022/05/05 11:51:11;;;;;;;8.05;3.83;;;;;;;23.29;38.24;101141.61;1701147;82;20956;-79
2022/05/05 11:53:39;;;;;;;7.25;4.35;;;;;;;23.30;38.18;101145.48;1701196;82;21404;-79
2022/05/05 11:56:12;;;;;;;13.37;4.50;;;;;;;23.26;38.11;101141.80;1705246;84;20928;-79
2022/05/05 12:01:38;;;;;;;6.25;4.03;;;;;;;23.26;38.17;101142.64;1701916;84;20928;-79
2022/05/05 12:04:04;;;;;;;5.92;3.83;;;;;;;23.29;38.09;101147.73;1703964;84;20924;-80
2022/05/05 12:06:33;;;;;;;7.00;4.28;;;;;;;23.27;38.08;101142.17;1703559;82;20876;-80